Terminal Aerodrome Forecast
Issued by NWS

Home | Current Version | Previous Version | Graphics & Text | Print | Product List | Glossary Off
Versions: 1 2 3 4 5 6 7 8 9 10 11 12 13 14 15 16 17 18 19 20 21 22 23 24 25 26 27 28 29 30

331
FTUS43 KGRB 102339 AAA
TAFRHI
TAF AMD
KRHI 102339Z 1100/1124 VRB03KT P6SM OVC100
     FM110600 VRB03KT P6SM OVC025
     FM110900 VRB03KT 3SM -SN OVC015
     FM111200 09005KT 2SM -SN OVC012
     FM111400 10003KT 1SM -SN OVC010
     FM112000 09005KT 3SM -SN OVC012=

USA.gov is the U.S. government's official web portal to all federal, state and local government web resources and services.